createdAt,value
2022-11-15T00:03:52.240Z,23.50
2022-11-15T00:14:12.156Z,22.63
2022-11-15T00:24:31.958Z,23.83
2022-11-15T00:34:51.888Z,23.93
2022-11-15T00:45:12.229Z,23.20
2022-11-15T00:55:32.139Z,25.50
2022-11-15T01:05:52.437Z,26.17
2022-11-15T01:16:18.471Z,23.17
2022-11-15T01:26:38.555Z,26.40
2022-11-15T01:36:58.584Z,23.47
2022-11-15T01:47:30.090Z,25.50
2022-11-15T01:57:54.165Z,27.10
2022-11-15T02:08:20.838Z,23.10
2022-11-15T02:19:03.131Z,23.63
2022-11-15T02:29:26.070Z,22.37
2022-11-15T02:39:57.617Z,23.07
2022-11-15T02:50:21.180Z,23.93
2022-11-15T03:01:06.212Z,21.40
2022-11-15T03:11:26.705Z,19.90
2022-11-15T03:21:49.023Z,20.53
2022-11-15T03:32:17.468Z,19.37
2022-11-15T03:42:47.662Z,18.33
2022-11-15T03:53:07.746Z,16.40
2022-11-15T04:03:28.147Z,18.67
2022-11-15T04:13:48.373Z,22.00
2022-11-15T04:24:08.291Z,22.57
2022-11-15T04:34:28.262Z,20.33
2022-11-15T04:44:48.081Z,21.03
2022-11-15T04:55:08.540Z,20.50
2022-11-15T05:05:28.643Z,21.90
2022-11-15T05:15:49.945Z,24.60
2022-11-15T05:26:10.721Z,25.90
2022-11-15T05:36:39.423Z,26.67
2022-11-15T05:46:59.906Z,25.80
2022-11-15T05:57:20.157Z,23.77
2022-11-15T06:07:40.094Z,23.77
2022-11-15T06:18:00.202Z,23.43
2022-11-15T06:28:20.477Z,22.07
2022-11-15T06:38:40.776Z,26.57
2022-11-15T06:49:03.988Z,22.37
2022-11-15T06:59:28.384Z,20.10
2022-11-15T07:09:48.947Z,21.43
2022-11-15T07:20:09.276Z,19.53
2022-11-15T07:30:30.161Z,23.50
2022-11-15T07:40:58.013Z,21.30
2022-11-15T07:51:18.364Z,19.63
2022-11-15T08:01:38.640Z,18.73
2022-11-15T08:11:58.829Z,19.37
2022-11-15T08:22:19.211Z,17.47
2022-11-15T08:32:39.012Z,14.93
2022-11-15T08:42:59.746Z,8.03
2022-11-15T08:53:19.718Z,7.27
2022-11-15T09:03:41.316Z,6.80
2022-11-15T09:14:01.370Z,6.87
2022-11-15T09:24:21.859Z,6.55
2022-11-15T09:34:42.023Z,6.22
2022-11-15T09:45:11.471Z,5.40
2022-11-15T09:55:45.866Z,5.55
2022-11-15T10:05:49.604Z,6.70
2022-11-15T10:15:51.663Z,6.25
2022-11-15T10:25:56.840Z,6.22
2022-11-15T10:36:10.388Z,6.70
2022-11-15T10:46:45.153Z,6.63
2022-11-15T10:56:43.467Z,6.90
2022-11-15T11:06:52.025Z,6.60
2022-11-15T11:17:11.213Z,8.93
2022-11-15T11:27:36.536Z,9.17
2022-11-15T11:37:47.254Z,7.93
2022-11-15T11:47:58.003Z,7.57
2022-11-15T11:58:11.281Z,7.40
2022-11-15T12:08:40.800Z,7.80
2022-11-15T12:18:48.180Z,7.13
2022-11-15T12:29:16.149Z,7.23
2022-11-15T12:39:18.817Z,7.23
2022-11-15T12:49:38.453Z,7.17
2022-11-15T13:00:03.149Z,7.03
2022-11-15T13:10:11.161Z,7.10
2022-11-15T13:20:21.360Z,6.97
2022-11-15T13:30:26.725Z,7.30
2022-11-15T13:40:34.783Z,8.20
2022-11-15T13:50:39.330Z,7.33
2022-11-15T14:00:44.301Z,7.70
2022-11-15T14:10:45.855Z,7.60
2022-11-15T14:20:47.514Z,10.37
2022-11-15T14:30:51.259Z,11.87
2022-11-15T14:40:54.565Z,9.93
2022-11-15T14:50:56.255Z,9.90
2022-11-15T15:00:59.179Z,11.30
2022-11-15T15:11:00.697Z,11.20
2022-11-15T15:21:08.299Z,11.73
2022-11-15T15:31:11.191Z,12.47
2022-11-15T15:41:13.450Z,12.43
2022-11-15T15:51:20.180Z,11.57
2022-11-15T16:01:22.942Z,13.17
2022-11-15T16:11:24.514Z,14.60
2022-11-15T16:21:26.119Z,12.50
2022-11-15T16:31:27.736Z,13.27
2022-11-15T16:41:29.375Z,12.97
2022-11-15T16:51:30.961Z,12.90
2022-11-15T17:01:46.763Z,12.40
2022-11-15T17:11:48.707Z,13.53
2022-11-15T17:21:50.709Z,14.90
2022-11-15T17:31:52.183Z,16.70
2022-11-15T17:41:53.662Z,19.93
2022-11-15T17:51:55.421Z,19.03
2022-11-15T18:01:56.876Z,20.03
2022-11-15T18:11:58.632Z,21.33
2022-11-15T18:22:01.358Z,22.70
2022-11-15T18:32:06.395Z,19.90
2022-11-15T18:42:07.888Z,18.97
2022-11-15T18:52:09.916Z,18.40
2022-11-15T19:02:13.073Z,18.50
2022-11-15T19:12:14.725Z,18.07
2022-11-15T19:22:16.240Z,18.70
2022-11-15T19:32:17.873Z,20.20
2022-11-15T19:42:19.425Z,19.40
2022-11-15T19:52:22.447Z,20.53
2022-11-15T20:02:24.025Z,19.70
2022-11-15T20:12:25.565Z,21.30
2022-11-15T20:22:27.334Z,20.20
2022-11-15T20:32:30.553Z,21.90
2022-11-15T20:42:32.498Z,22.50
2022-11-15T20:52:33.941Z,22.33
2022-11-15T21:02:35.569Z,23.57
2022-11-15T21:12:37.295Z,25.13
2022-11-15T21:22:39.179Z,25.70
2022-11-15T21:32:40.664Z,24.53
2022-11-15T21:42:42.091Z,23.63
2022-11-15T21:52:43.559Z,23.33
2022-11-15T22:02:45.045Z,23.70
2022-11-15T22:12:46.552Z,23.93
2022-11-15T22:22:48.116Z,25.03
2022-11-15T22:32:49.710Z,25.73
2022-11-15T22:42:53.460Z,28.60
2022-11-15T22:52:54.906Z,30.60
2022-11-15T23:02:56.348Z,32.93
2022-11-15T23:13:17.190Z,32.53
2022-11-15T23:23:18.639Z,29.93
2022-11-15T23:33:39.242Z,29.07
2022-11-15T23:43:40.748Z,28.07
2022-11-15T23:53:42.843Z,28.73
